sensor_id;sensor_type;location;lat;lon;timestamp;pressure;altitude;pressure_sealevel;temperature;humidity
39105;BME280;46464;51.154;13.812;2022-09-09T00:04:41;98950.66;;;13.54;100.00
39105;BME280;46464;51.154;13.812;2022-09-09T00:10:29;98953.25;;;13.55;100.00
39105;BME280;46464;51.154;13.812;2022-09-09T00:15:45;98947.00;;;13.55;100.00
39105;BME280;46464;51.154;13.812;2022-09-09T00:18:47;98949.03;;;13.51;100.00
39105;BME280;46464;51.154;13.812;2022-09-09T00:21:15;98958.97;;;13.51;100.00
39105;BME280;46464;51.154;13.812;2022-09-09T00:23:48;98950.75;;;13.52;100.00
39105;BME280;46464;51.154;13.812;2022-09-09T00:26:38;98946.88;;;13.56;100.00
39105;BME280;46464;51.154;13.812;2022-09-09T00:31:38;98946.88;;;13.56;100.00
39105;BME280;46464;51.154;13.812;2022-09-09T00:34:16;98953.34;;;13.54;100.00
39105;BME280;46464;51.154;13.812;2022-09-09T00:36:45;98945.66;;;13.48;100.00
39105;BME280;46464;51.154;13.812;2022-09-09T00:39:30;98948.06;;;13.52;100.00
39105;BME280;46464;51.154;13.812;2022-09-09T00:42:44;98947.69;;;13.44;100.00
39105;BME280;46464;51.154;13.812;2022-09-09T00:50:22;98948.38;;;13.33;100.00
39105;BME280;46464;51.154;13.812;2022-09-09T00:58:28;98945.31;;;13.25;100.00
39105;BME280;46464;51.154;13.812;2022-09-09T01:01:02;98949.19;;;13.21;100.00
39105;BME280;46464;51.154;13.812;2022-09-09T01:03:38;98952.06;;;13.18;100.00
39105;BME280;46464;51.154;13.812;2022-09-09T01:06:16;98946.97;;;13.13;100.00
39105;BME280;46464;51.154;13.812;2022-09-09T01:16:57;98947.69;;;13.02;100.00
39105;BME280;46464;51.154;13.812;2022-09-09T01:22:18;98954.03;;;13.01;100.00
39105;BME280;46464;51.154;13.812;2022-09-09T01:27:59;98958.94;;;12.95;100.00
39105;BME280;46464;51.154;13.812;2022-09-09T01:30:27;98957.69;;;13.00;100.00
39105;BME280;46464;51.154;13.812;2022-09-09T01:32:57;98958.94;;;12.95;100.00
39105;BME280;46464;51.154;13.812;2022-09-09T01:38:15;98961.94;;;12.90;100.00
39105;BME280;46464;51.154;13.812;2022-09-09T01:40:42;98953.09;;;12.88;100.00
39105;BME280;46464;51.154;13.812;2022-09-09T01:43:09;98953.09;;;12.88;100.00
39105;BME280;46464;51.154;13.812;2022-09-09T01:45:36;98957.91;;;12.83;100.00
39105;BME280;46464;51.154;13.812;2022-09-09T01:48:03;98950.88;;;12.80;100.00
39105;BME280;46464;51.154;13.812;2022-09-09T01:50:30;98951.94;;;12.78;100.00
39105;BME280;46464;51.154;13.812;2022-09-09T01:52:58;98950.28;;;12.75;100.00
39105;BME280;46464;51.154;13.812;2022-09-09T01:55:38;98946.63;;;12.76;100.00
39105;BME280;46464;51.154;13.812;2022-09-09T02:00:56;98942.50;;;12.70;100.00
39105;BME280;46464;51.154;13.812;2022-09-09T02:03:27;98948.97;;;12.68;100.00
39105;BME280;46464;51.154;13.812;2022-09-09T02:06:04;98945.59;;;12.64;100.00
39105;BME280;46464;51.154;13.812;2022-09-09T02:08:47;98947.72;;;12.59;100.00
39105;BME280;46464;51.154;13.812;2022-09-09T02:11:20;98941.66;;;12.55;100.00
39105;BME280;46464;51.154;13.812;2022-09-09T02:13:49;98941.94;;;12.51;100.00
39105;BME280;46464;51.154;13.812;2022-09-09T02:16:28;98945.69;;;12.48;100.00
39105;BME280;46464;51.154;13.812;2022-09-09T02:21:36;98952.31;;;12.42;100.00
39105;BME280;46464;51.154;13.812;2022-09-09T02:24:08;98949.91;;;12.38;100.00
39105;BME280;46464;51.154;13.812;2022-09-09T02:26:39;98944.81;;;12.33;100.00
39105;BME280;46464;51.154;13.812;2022-09-09T02:29:23;98955.00;;;12.28;100.00
39105;BME280;46464;51.154;13.812;2022-09-09T02:31:52;98960.66;;;12.23;100.00
39105;BME280;46464;51.154;13.812;2022-09-09T02:34:23;98961.81;;;12.19;100.00
39105;BME280;46464;51.154;13.812;2022-09-09T02:36:53;98956.59;;;12.16;100.00
39105;BME280;46464;51.154;13.812;2022-09-09T02:39:20;98953.22;;;12.13;100.00
39105;BME280;46464;51.154;13.812;2022-09-09T02:41:47;98960.50;;;12.10;100.00
39105;BME280;46464;51.154;13.812;2022-09-09T02:44:16;98954.38;;;12.08;100.00
39105;BME280;46464;51.154;13.812;2022-09-09T02:55:15;98957.19;;;11.91;100.00
39105;BME280;46464;51.154;13.812;2022-09-09T02:57:46;98956.50;;;11.87;100.00
39105;BME280;46464;51.154;13.812;2022-09-09T03:00:14;98957.44;;;11.86;100.00
39105;BME280;46464;51.154;13.812;2022-09-09T03:02:40;98962.03;;;11.84;100.00
39105;BME280;46464;51.154;13.812;2022-09-09T03:05:08;98956.84;;;11.81;100.00
39105;BME280;46464;51.154;13.812;2022-09-09T03:07:35;98953.28;;;11.81;100.00
39105;BME280;46464;51.154;13.812;2022-09-09T03:10:02;98955.22;;;11.78;100.00
39105;BME280;46464;51.154;13.812;2022-09-09T03:12:29;98963.28;;;11.78;100.00
39105;BME280;46464;51.154;13.812;2022-09-09T03:14:55;98965.09;;;11.78;100.00
39105;BME280;46464;51.154;13.812;2022-09-09T03:17:22;98968.75;;;11.77;100.00
39105;BME280;46464;51.154;13.812;2022-09-09T03:19:49;98958.16;;;11.74;100.00
39105;BME280;46464;51.154;13.812;2022-09-09T03:22:16;98960.97;;;11.72;100.00
39105;BME280;46464;51.154;13.812;2022-09-09T03:24:42;98966.50;;;11.69;100.00
39105;BME280;46464;51.154;13.812;2022-09-09T03:27:09;98961.13;;;11.69;100.00
39105;BME280;46464;51.154;13.812;2022-09-09T03:29:36;98967.47;;;11.68;100.00
39105;BME280;46464;51.154;13.812;2022-09-09T03:32:03;98968.59;;;11.64;100.00
39105;BME280;46464;51.154;13.812;2022-09-09T03:34:30;98965.81;;;11.66;100.00
39105;BME280;46464;51.154;13.812;2022-09-09T03:36:57;98969.56;;;11.63;100.00
39105;BME280;46464;51.154;13.812;2022-09-09T03:39:23;98968.59;;;11.64;100.00
39105;BME280;46464;51.154;13.812;2022-09-09T03:41:50;98956.00;;;11.65;100.00
39105;BME280;46464;51.154;13.812;2022-09-09T03:44:17;98954.09;;;11.67;100.00
39105;BME280;46464;51.154;13.812;2022-09-09T03:46:43;98953.25;;;11.66;100.00
39105;BME280;46464;51.154;13.812;2022-09-09T03:49:10;98948.81;;;11.65;100.00
39105;BME280;46464;51.154;13.812;2022-09-09T03:51:36;98942.56;;;11.65;100.00
39105;BME280;46464;51.154;13.812;2022-09-09T03:54:04;98950.63;;;11.65;100.00
39105;BME280;46464;51.154;13.812;2022-09-09T03:56:34;98957.00;;;11.63;100.00
39105;BME280;46464;51.154;13.812;2022-09-09T03:59:02;98952.66;;;11.61;100.00
39105;BME280;46464;51.154;13.812;2022-09-09T04:01:29;98957.16;;;11.60;100.00
39105;BME280;46464;51.154;13.812;2022-09-09T04:03:55;98955.41;;;11.59;100.00
39105;BME280;46464;51.154;13.812;2022-09-09T04:06:24;98957.50;;;11.54;100.00
39105;BME280;46464;51.154;13.812;2022-09-09T04:08:51;98958.47;;;11.53;100.00
39105;BME280;46464;51.154;13.812;2022-09-09T04:11:19;98960.41;;;11.51;100.00
39105;BME280;46464;51.154;13.812;2022-09-09T04:13:46;98958.75;;;11.49;100.00
39105;BME280;46464;51.154;13.812;2022-09-09T04:16:13;98966.03;;;11.46;100.00
39105;BME280;46464;51.154;13.812;2022-09-09T04:18:39;98963.50;;;11.43;100.00
39105;BME280;46464;51.154;13.812;2022-09-09T04:21:07;98969.16;;;11.39;100.00
39105;BME280;46464;51.154;13.812;2022-09-09T04:23:34;98967.25;;;11.41;100.00
39105;BME280;46464;51.154;13.812;2022-09-09T04:26:02;98967.44;;;11.38;100.00
39105;BME280;46464;51.154;13.812;2022-09-09T04:28:31;98958.47;;;11.37;100.00
39105;BME280;46464;51.154;13.812;2022-09-09T04:31:16;98965.69;;;11.37;100.00
39105;BME280;46464;51.154;13.812;2022-09-09T04:33:44;98961.16;;;11.37;100.00
39105;BME280;46464;51.154;13.812;2022-09-09T04:36:10;98968.38;;;11.37;100.00
39105;BME280;46464;51.154;13.812;2022-09-09T04:38:37;98965.69;;;11.37;100.00
39105;BME280;46464;51.154;13.812;2022-09-09T04:41:04;98971.66;;;11.42;100.00
39105;BME280;46464;51.154;13.812;2022-09-09T04:43:31;98972.47;;;11.44;100.00
39105;BME280;46464;51.154;13.812;2022-09-09T04:45:58;98977.75;;;11.45;100.00
39105;BME280;46464;51.154;13.812;2022-09-09T04:48:28;98970.47;;;11.48;100.00
39105;BME280;46464;51.154;13.812;2022-09-09T04:51:13;98969.41;;;11.50;100.00
39105;BME280;46464;51.154;13.812;2022-09-09T04:53:40;98969.16;;;11.55;100.00
39105;BME280;46464;51.154;13.812;2022-09-09T04:56:10;98961.75;;;11.58;100.00
39105;BME280;46464;51.154;13.812;2022-09-09T04:58:38;98968.59;;;11.64;100.00
39105;BME280;46464;51.154;13.812;2022-09-09T05:01:13;98967.56;;;11.67;100.00
39105;BME280;46464;51.154;13.812;2022-09-09T05:03:41;98978.22;;;11.68;100.00
39105;BME280;46464;51.154;13.812;2022-09-09T05:06:10;98969.09;;;11.71;100.00
39105;BME280;46464;51.154;13.812;2022-09-09T05:08:38;98968.09;;;11.73;100.00
39105;BME280;46464;51.154;13.812;2022-09-09T05:13:44;98967.53;;;11.83;100.00
39105;BME280;46464;51.154;13.812;2022-09-09T05:16:12;98972.66;;;11.87;100.00
39105;BME280;46464;51.154;13.812;2022-09-09T05:18:40;98972.19;;;11.95;100.00
39105;BME280;46464;51.154;13.812;2022-09-09T05:21:07;98974.53;;;12.01;100.00
39105;BME280;46464;51.154;13.812;2022-09-09T05:23:34;98978.59;;;12.08;100.00
39105;BME280;46464;51.154;13.812;2022-09-09T05:26:00;98974.75;;;12.13;100.00
39105;BME280;46464;51.154;13.812;2022-09-09T05:28:28;98981.50;;;12.20;100.00
39105;BME280;46464;51.154;13.812;2022-09-09T05:30:59;98973.84;;;12.28;100.00
39105;BME280;46464;51.154;13.812;2022-09-09T05:33:31;98977.97;;;12.34;100.00
39105;BME280;46464;51.154;13.812;2022-09-09T05:36:03;98980.19;;;12.41;100.00
39105;BME280;46464;51.154;13.812;2022-09-09T05:38:31;98983.28;;;12.50;100.00
39105;BME280;46464;51.154;13.812;2022-09-09T05:40:59;98982.53;;;12.62;100.00
39105;BME280;46464;51.154;13.812;2022-09-09T05:43:26;98987.63;;;12.81;100.00
39105;BME280;46464;51.154;13.812;2022-09-09T05:46:11;98993.53;;;13.02;100.00
39105;BME280;46464;51.154;13.812;2022-09-09T05:48:40;98985.41;;;13.17;100.00
39105;BME280;46464;51.154;13.812;2022-09-09T05:51:09;98989.16;;;13.29;100.00
39105;BME280;46464;51.154;13.812;2022-09-09T05:53:38;98988.56;;;13.38;100.00
39105;BME280;46464;51.154;13.812;2022-09-09T05:58:42;98988.44;;;13.54;100.00
39105;BME280;46464;51.154;13.812;2022-09-09T06:03:45;98998.72;;;13.62;100.00
39105;BME280;46464;51.154;13.812;2022-09-09T06:06:15;99006.63;;;13.65;100.00
39105;BME280;46464;51.154;13.812;2022-09-09T06:08:43;99000.16;;;13.67;100.00
39105;BME280;46464;51.154;13.812;2022-09-09T06:11:13;99002.97;;;13.66;100.00
39105;BME280;46464;51.154;13.812;2022-09-09T06:13:40;99002.97;;;13.66;100.00
39105;BME280;46464;51.154;13.812;2022-09-09T06:16:12;99007.28;;;13.68;100.00
39105;BME280;46464;51.154;13.812;2022-09-09T06:18:39;99003.41;;;13.72;100.00
39105;BME280;46464;51.154;13.812;2022-09-09T06:21:10;99001.28;;;13.78;100.00
39105;BME280;46464;51.154;13.812;2022-09-09T06:23:39;99002.50;;;13.86;100.00
39105;BME280;46464;51.154;13.812;2022-09-09T06:26:12;99003.81;;;13.94;100.00
39105;BME280;46464;51.154;13.812;2022-09-09T06:28:39;99002.44;;;14.01;100.00
39105;BME280;46464;51.154;13.812;2022-09-09T06:31:07;99001.06;;;14.08;100.00
39105;BME280;46464;51.154;13.812;2022-09-09T06:33:36;99003.34;;;14.14;100.00
39105;BME280;46464;51.154;13.812;2022-09-09T06:36:05;99008.44;;;14.19;100.00
39105;BME280;46464;51.154;13.812;2022-09-09T06:38:32;99009.84;;;14.25;100.00
39105;BME280;46464;51.154;13.812;2022-09-09T06:40:59;99010.38;;;14.30;100.00
39105;BME280;46464;51.154;13.812;2022-09-09T06:43:26;99007.38;;;14.34;100.00
39105;BME280;46464;51.154;13.812;2022-09-09T06:45:59;99001.78;;;14.38;100.00
39105;BME280;46464;51.154;13.812;2022-09-09T06:48:27;99008.47;;;14.45;100.00
39105;BME280;46464;51.154;13.812;2022-09-09T06:51:05;99008.69;;;14.55;100.00
39105;BME280;46464;51.154;13.812;2022-09-09T06:53:34;99005.16;;;14.67;100.00
39105;BME280;46464;51.154;13.812;2022-09-09T06:58:43;99000.41;;;14.96;100.00
39105;BME280;46464;51.154;13.812;2022-09-09T07:01:13;98997.66;;;15.09;100.00
39105;BME280;46464;51.154;13.812;2022-09-09T07:03:41;99008.38;;;15.24;100.00
39105;BME280;46464;51.154;13.812;2022-09-09T07:06:17;99002.19;;;15.35;100.00
39105;BME280;46464;51.154;13.812;2022-09-09T07:08:49;99001.56;;;15.55;100.00
39105;BME280;46464;51.154;13.812;2022-09-09T07:11:24;98997.72;;;15.71;100.00
39105;BME280;46464;51.154;13.812;2022-09-09T07:13:53;98996.03;;;15.94;100.00
39105;BME280;46464;51.154;13.812;2022-09-09T07:16:21;98989.78;;;16.05;100.00
39105;BME280;46464;51.154;13.812;2022-09-09T07:18:51;98996.88;;;16.19;100.00
39105;BME280;46464;51.154;13.812;2022-09-09T07:21:19;99005.50;;;16.24;100.00
39105;BME280;46464;51.154;13.812;2022-09-09T07:23:47;99006.78;;;16.31;100.00
39105;BME280;46464;51.154;13.812;2022-09-09T07:26:16;98999.53;;;16.43;100.00
39105;BME280;46464;51.154;13.812;2022-09-09T07:28:43;98998.56;;;16.55;97.77
39105;BME280;46464;51.154;13.812;2022-09-09T07:31:14;98998.72;;;16.76;99.18
39105;BME280;46464;51.154;13.812;2022-09-09T07:33:43;98992.50;;;16.99;98.50
39105;BME280;46464;51.154;13.812;2022-09-09T07:36:17;98996.31;;;17.19;97.52
39105;BME280;46464;51.154;13.812;2022-09-09T07:38:46;98988.53;;;17.37;95.74
39105;BME280;46464;51.154;13.812;2022-09-09T07:41:25;98993.66;;;17.51;95.63
39105;BME280;46464;51.154;13.812;2022-09-09T07:43:53;98993.66;;;17.63;91.67
39105;BME280;46464;51.154;13.812;2022-09-09T07:46:24;98996.59;;;17.71;90.80
39105;BME280;46464;51.154;13.812;2022-09-09T07:48:56;98999.22;;;17.72;89.41
39105;BME280;46464;51.154;13.812;2022-09-09T07:51:25;98996.69;;;17.81;90.84
39105;BME280;46464;51.154;13.812;2022-09-09T07:53:58;98997.91;;;17.88;89.08
39105;BME280;46464;51.154;13.812;2022-09-09T07:56:26;99007.75;;;18.12;90.14
39105;BME280;46464;51.154;13.812;2022-09-09T07:58:54;99001.63;;;18.31;87.57
39105;BME280;46464;51.154;13.812;2022-09-09T08:01:50;99009.38;;;18.57;85.45
39105;BME280;46464;51.154;13.812;2022-09-09T08:04:20;99006.78;;;18.76;88.70
39105;BME280;46464;51.154;13.812;2022-09-09T08:06:53;99004.78;;;18.99;86.89
39105;BME280;46464;51.154;13.812;2022-09-09T08:09:21;99001.72;;;19.14;85.73
39105;BME280;46464;51.154;13.812;2022-09-09T08:11:47;98998.00;;;19.25;82.71
39105;BME280;46464;51.154;13.812;2022-09-09T08:14:16;99009.09;;;19.33;79.58
39105;BME280;46464;51.154;13.812;2022-09-09T08:16:45;99010.16;;;19.51;80.56
39105;BME280;46464;51.154;13.812;2022-09-09T08:19:13;99006.75;;;19.69;81.08
39105;BME280;46464;51.154;13.812;2022-09-09T08:21:42;99002.91;;;19.81;79.21
39105;BME280;46464;51.154;13.812;2022-09-09T08:24:10;99005.84;;;19.90;77.70
39105;BME280;46464;51.154;13.812;2022-09-09T08:26:41;99014.41;;;19.85;77.65
39105;BME280;46464;51.154;13.812;2022-09-09T08:29:10;99012.81;;;19.82;77.38
39105;BME280;46464;51.154;13.812;2022-09-09T08:31:40;99011.66;;;19.75;77.82
39105;BME280;46464;51.154;13.812;2022-09-09T08:34:07;99018.81;;;19.76;78.63
39105;BME280;46464;51.154;13.812;2022-09-09T08:36:36;99023.97;;;19.60;78.00
39105;BME280;46464;51.154;13.812;2022-09-09T08:39:06;99035.84;;;19.59;79.09
39105;BME280;46464;51.154;13.812;2022-09-09T08:41:47;99028.53;;;19.59;80.05
39105;BME280;46464;51.154;13.812;2022-09-09T08:52:13;99031.22;;;19.49;81.65
39105;BME280;46464;51.154;13.812;2022-09-09T08:54:42;99033.25;;;19.47;84.29
39105;BME280;46464;51.154;13.812;2022-09-09T08:57:28;99035.78;;;19.39;85.10
39105;BME280;46464;51.154;13.812;2022-09-09T08:59:58;99037.50;;;19.40;85.32
39105;BME280;46464;51.154;13.812;2022-09-09T09:02:38;99041.53;;;19.46;86.90
39105;BME280;46464;51.154;13.812;2022-09-09T09:05:24;99042.72;;;19.63;90.76
39105;BME280;46464;51.154;13.812;2022-09-09T09:08:17;99033.28;;;19.67;84.58
39105;BME280;46464;51.154;13.812;2022-09-09T09:10:50;99028.00;;;19.75;83.31
39105;BME280;46464;51.154;13.812;2022-09-09T09:13:20;99035.22;;;19.86;86.50
39105;BME280;46464;51.154;13.812;2022-09-09T09:15:55;99028.78;;;19.97;86.75
39105;BME280;46464;51.154;13.812;2022-09-09T09:18:23;99038.00;;;20.06;81.36
39105;BME280;46464;51.154;13.812;2022-09-09T09:23:45;99054.22;;;20.07;82.51
39105;BME280;46464;51.154;13.812;2022-09-09T09:26:14;99053.69;;;19.82;76.34
39105;BME280;46464;51.154;13.812;2022-09-09T09:28:41;99041.19;;;19.70;78.55
39105;BME280;46464;51.154;13.812;2022-09-09T09:31:11;99054.59;;;19.52;79.93
39105;BME280;46464;51.154;13.812;2022-09-09T09:33:48;99057.72;;;19.38;82.21
39105;BME280;46464;51.154;13.812;2022-09-09T09:36:16;99073.31;;;19.35;80.36
39105;BME280;46464;51.154;13.812;2022-09-09T09:38:58;99065.94;;;19.16;82.21
39105;BME280;46464;51.154;13.812;2022-09-09T09:41:46;99069.84;;;19.02;84.76
39105;BME280;46464;51.154;13.812;2022-09-09T09:44:28;99072.75;;;18.90;86.35
39105;BME280;46464;51.154;13.812;2022-09-09T09:47:08;99080.25;;;18.76;87.47
39105;BME280;46464;51.154;13.812;2022-09-09T09:49:35;99084.91;;;18.64;88.85
39105;BME280;46464;51.154;13.812;2022-09-09T09:52:02;99074.66;;;18.57;89.35
39105;BME280;46464;51.154;13.812;2022-09-09T09:54:32;99073.81;;;18.56;90.91
39105;BME280;46464;51.154;13.812;2022-09-09T09:57:22;99069.56;;;18.63;92.17
39105;BME280;46464;51.154;13.812;2022-09-09T10:00:01;99064.66;;;18.78;93.71
39105;BME280;46464;51.154;13.812;2022-09-09T10:02:37;99071.66;;;18.92;93.61
39105;BME280;46464;51.154;13.812;2022-09-09T10:05:26;99071.91;;;19.10;93.69
39105;BME280;46464;51.154;13.812;2022-09-09T10:08:23;99070.19;;;19.40;94.39
39105;BME280;46464;51.154;13.812;2022-09-09T10:19:15;99058.41;;;20.41;84.13
39105;BME280;46464;51.154;13.812;2022-09-09T10:30:49;99042.84;;;20.90;79.48
39105;BME280;46464;51.154;13.812;2022-09-09T10:33:31;99044.13;;;20.96;80.21
39105;BME280;46464;51.154;13.812;2022-09-09T10:36:12;99049.97;;;21.11;81.63
39105;BME280;46464;51.154;13.812;2022-09-09T10:38:41;99042.88;;;21.28;80.40
39105;BME280;46464;51.154;13.812;2022-09-09T10:52:01;99030.41;;;21.53;75.62
39105;BME280;46464;51.154;13.812;2022-09-09T10:57:24;99029.28;;;21.56;75.31
39105;BME280;46464;51.154;13.812;2022-09-09T10:59:54;99019.94;;;21.58;75.26
39105;BME280;46464;51.154;13.812;2022-09-09T11:02:28;99014.88;;;21.82;75.49
39105;BME280;46464;51.154;13.812;2022-09-09T11:05:02;99007.88;;;21.97;74.74
39105;BME280;46464;51.154;13.812;2022-09-09T11:07:41;99008.81;;;22.06;74.22
39105;BME280;46464;51.154;13.812;2022-09-09T11:13:05;99006.31;;;22.13;70.25
39105;BME280;46464;51.154;13.812;2022-09-09T11:15:39;99003.44;;;22.14;71.52
39105;BME280;46464;51.154;13.812;2022-09-09T11:18:13;99001.25;;;22.18;71.23
39105;BME280;46464;51.154;13.812;2022-09-09T11:20:44;98998.56;;;22.26;71.67
39105;BME280;46464;51.154;13.812;2022-09-09T11:23:22;99002.94;;;22.19;70.86
39105;BME280;46464;51.154;13.812;2022-09-09T11:25:55;99000.06;;;22.02;71.80
39105;BME280;46464;51.154;13.812;2022-09-09T11:28:46;98995.59;;;21.83;72.95
39105;BME280;46464;51.154;13.812;2022-09-09T11:31:30;98991.41;;;21.61;74.75
39105;BME280;46464;51.154;13.812;2022-09-09T11:39:41;98994.31;;;21.22;79.26
39105;BME280;46464;51.154;13.812;2022-09-09T11:42:17;98991.81;;;21.01;79.44
39105;BME280;46464;51.154;13.812;2022-09-09T11:44:45;98992.72;;;20.82;80.32
39105;BME280;46464;51.154;13.812;2022-09-09T11:49:52;99014.44;;;20.44;84.55
39105;BME280;46464;51.154;13.812;2022-09-09T11:52:24;99022.19;;;20.29;87.53
39105;BME280;46464;51.154;13.812;2022-09-09T11:54:55;99021.50;;;20.17;89.63
39105;BME280;46464;51.154;13.812;2022-09-09T11:57:32;99008.00;;;20.06;91.18
39105;BME280;46464;51.154;13.812;2022-09-09T11:59:59;98993.47;;;19.95;94.20
39105;BME280;46464;51.154;13.812;2022-09-09T12:02:28;98994.03;;;19.89;94.03
39105;BME280;46464;51.154;13.812;2022-09-09T12:05:02;98987.00;;;19.87;94.91
39105;BME280;46464;51.154;13.812;2022-09-09T12:07:56;98977.56;;;20.00;96.14
39105;BME280;46464;51.154;13.812;2022-09-09T12:10:30;98976.13;;;20.06;96.49
39105;BME280;46464;51.154;13.812;2022-09-09T12:13:16;98983.75;;;20.12;95.65
39105;BME280;46464;51.154;13.812;2022-09-09T12:15:48;98976.97;;;20.36;96.55
39105;BME280;46464;51.154;13.812;2022-09-09T12:18:23;98971.19;;;20.59;95.50
39105;BME280;46464;51.154;13.812;2022-09-09T12:21:15;98957.50;;;20.88;94.35
39105;BME280;46464;51.154;13.812;2022-09-09T12:23:51;98960.00;;;21.09;93.30
39105;BME280;46464;51.154;13.812;2022-09-09T12:26:24;98958.50;;;21.25;93.19
39105;BME280;46464;51.154;13.812;2022-09-09T12:29:24;98964.41;;;21.48;92.68
39105;BME280;46464;51.154;13.812;2022-09-09T12:32:06;98956.06;;;21.50;89.52
39105;BME280;46464;51.154;13.812;2022-09-09T12:37:14;98958.06;;;21.75;86.24
39105;BME280;46464;51.154;13.812;2022-09-09T12:39:49;98954.03;;;21.80;84.79
39105;BME280;46464;51.154;13.812;2022-09-09T12:42:19;98955.44;;;21.84;85.34
39105;BME280;46464;51.154;13.812;2022-09-09T12:44:52;98954.31;;;21.76;85.05
39105;BME280;46464;51.154;13.812;2022-09-09T12:47:22;98945.44;;;21.74;85.98
39105;BME280;46464;51.154;13.812;2022-09-09T12:49:55;98946.22;;;21.85;85.39
39105;BME280;46464;51.154;13.812;2022-09-09T12:52:28;98955.19;;;21.95;82.37
39105;BME280;46464;51.154;13.812;2022-09-09T12:54:58;98943.47;;;22.03;80.90
39105;BME280;46464;51.154;13.812;2022-09-09T12:57:32;98942.22;;;22.15;81.48
39105;BME280;46464;51.154;13.812;2022-09-09T13:00:16;98946.13;;;22.31;78.71
39105;BME280;46464;51.154;13.812;2022-09-09T13:02:51;98930.66;;;22.39;80.21
39105;BME280;46464;51.154;13.812;2022-09-09T13:05:22;98936.94;;;22.58;81.87
39105;BME280;46464;51.154;13.812;2022-09-09T13:07:50;98924.34;;;22.73;81.17
39105;BME280;46464;51.154;13.812;2022-09-09T13:10:24;98931.44;;;22.84;79.20
39105;BME280;46464;51.154;13.812;2022-09-09T13:13:15;98925.00;;;22.94;78.49
39105;BME280;46464;51.154;13.812;2022-09-09T13:16:19;98930.78;;;23.17;78.63
39105;BME280;46464;51.154;13.812;2022-09-09T13:18:47;98913.31;;;23.18;76.44
39105;BME280;46464;51.154;13.812;2022-09-09T13:21:15;98916.94;;;23.18;75.23
39105;BME280;46464;51.154;13.812;2022-09-09T13:23:41;98909.06;;;23.24;74.13
39105;BME280;46464;51.154;13.812;2022-09-09T13:26:26;98904.47;;;23.32;73.39
39105;BME280;46464;51.154;13.812;2022-09-09T13:28:54;98907.53;;;23.29;73.77
39105;BME280;46464;51.154;13.812;2022-09-09T13:31:28;98912.31;;;23.19;74.85
39105;BME280;46464;51.154;13.812;2022-09-09T13:33:55;98907.41;;;23.04;75.40
39105;BME280;46464;51.154;13.812;2022-09-09T13:36:33;98907.75;;;23.01;78.52
39105;BME280;46464;51.154;13.812;2022-09-09T13:39:03;98902.81;;;23.05;76.04
39105;BME280;46464;51.154;13.812;2022-09-09T13:41:33;98896.88;;;23.18;74.80
39105;BME280;46464;51.154;13.812;2022-09-09T13:44:04;98906.34;;;23.32;73.43
39105;BME280;46464;51.154;13.812;2022-09-09T13:46:35;98913.59;;;23.41;71.61
39105;BME280;46464;51.154;13.812;2022-09-09T13:49:19;98917.72;;;23.53;66.91
39105;BME280;46464;51.154;13.812;2022-09-09T13:51:49;98920.66;;;23.60;65.16
39105;BME280;46464;51.154;13.812;2022-09-09T13:54:18;98917.56;;;23.47;64.41
39105;BME280;46464;51.154;13.812;2022-09-09T13:56:46;98924.06;;;23.46;61.94
39105;BME280;46464;51.154;13.812;2022-09-09T13:59:16;98923.59;;;23.16;63.35
39105;BME280;46464;51.154;13.812;2022-09-09T14:01:43;98919.84;;;22.91;62.89
39105;BME280;46464;51.154;13.812;2022-09-09T14:04:10;98920.41;;;22.68;65.42
39105;BME280;46464;51.154;13.812;2022-09-09T14:06:39;98928.34;;;22.53;65.50
39105;BME280;46464;51.154;13.812;2022-09-09T14:09:07;98914.94;;;22.42;66.60
39105;BME280;46464;51.154;13.812;2022-09-09T14:11:36;98912.75;;;22.27;69.15
39105;BME280;46464;51.154;13.812;2022-09-09T14:14:02;98912.63;;;22.11;71.81
39105;BME280;46464;51.154;13.812;2022-09-09T14:16:28;98903.31;;;22.03;71.73
39105;BME280;46464;51.154;13.812;2022-09-09T14:18:55;98904.19;;;21.86;73.47
39105;BME280;46464;51.154;13.812;2022-09-09T14:21:26;98903.66;;;21.82;73.78
39105;BME280;46464;51.154;13.812;2022-09-09T14:23:53;98902.00;;;21.89;74.72
39105;BME280;46464;51.154;13.812;2022-09-09T14:26:24;98893.25;;;21.86;76.51
39105;BME280;46464;51.154;13.812;2022-09-09T14:28:51;98885.50;;;21.81;74.89
39105;BME280;46464;51.154;13.812;2022-09-09T14:31:22;98887.06;;;21.84;75.46
39105;BME280;46464;51.154;13.812;2022-09-09T14:33:50;98884.34;;;22.02;75.06
39105;BME280;46464;51.154;13.812;2022-09-09T14:36:17;98889.31;;;22.06;73.60
39105;BME280;46464;51.154;13.812;2022-09-09T14:38:44;98877.91;;;22.11;72.84
39105;BME280;46464;51.154;13.812;2022-09-09T14:41:15;98881.66;;;22.10;70.91
39105;BME280;46464;51.154;13.812;2022-09-09T14:43:45;98877.59;;;22.14;72.07
39105;BME280;46464;51.154;13.812;2022-09-09T14:46:14;98865.69;;;22.23;71.01
39105;BME280;46464;51.154;13.812;2022-09-09T14:48:42;98876.34;;;22.35;72.42
39105;BME280;46464;51.154;13.812;2022-09-09T14:51:12;98866.22;;;22.27;71.27
39105;BME280;46464;51.154;13.812;2022-09-09T14:53:40;98866.06;;;22.29;72.00
39105;BME280;46464;51.154;13.812;2022-09-09T14:56:15;98863.63;;;22.44;70.69
39105;BME280;46464;51.154;13.812;2022-09-09T14:58:42;98867.59;;;22.49;70.51
39105;BME280;46464;51.154;13.812;2022-09-09T15:01:17;98867.78;;;22.48;68.89
39105;BME280;46464;51.154;13.812;2022-09-09T15:03:59;98869.63;;;22.47;69.61
39105;BME280;46464;51.154;13.812;2022-09-09T15:06:31;98868.56;;;22.40;67.91
39105;BME280;46464;51.154;13.812;2022-09-09T15:09:00;98874.72;;;22.42;66.37